Terminal Aerodrome Forecast
Issued by NWS

Home | Current Version | Previous Version | Graphics & Text | Print | Product List | Glossary On
Versions: 1 2 3 4 5 6 7 8 9 10 11 12 13 14 15 16 17
000
FTUS43 KMPX 211136
TAFRWF
TAF
KRWF 211136Z 2112/2212 14009KT P6SM SCT040 BKN120
      TEMPO 2112/2116 2SM -TSRA BKN040CB OVC100
     FM211800 15009KT P6SM BKN040 OVC100
     FM220100 14010KT P6SM VCTS BKN050CB OVC100
      TEMPO 2202/2204 5SM -TSRA BKN040CB
     FM220600 29007KT P6SM SCT025 BKN060=

USA.gov is the U.S. government's official web portal to all federal, state and local government web resources and services.